Time,TemperatureF,DewpointF,PressureIn,WindDirection,WindDirectionDegrees,WindSpeedMPH,WindSpeedGustMPH,Humidity,HourlyPrecipIn,Conditions,Clouds,dailyrainin,SoftwareType,DateUTC
2013-02-21 00:10:00,19.0,17.0,29.73,NNE,33,2.0,5.0,91,0.00,,,0.00,weatherlink.com 1.10,2013-02-21 07:10:00,
2013-02-21 00:25:00,18.9,17.0,29.73,NNE,33,0.0,7.0,91,0.00,,,0.00,weatherlink.com 1.10,2013-02-21 07:25:00,
2013-02-21 00:40:00,18.5,16.0,29.73,NNE,33,2.0,6.0,91,0.00,,,0.00,weatherlink.com 1.10,2013-02-21 07:40:00,
2013-02-21 00:55:00,18.4,16.0,29.73,NNE,33,2.0,6.0,91,0.00,,,0.00,weatherlink.com 1.10,2013-02-21 07:55:00,
2013-02-21 01:10:00,18.3,16.0,29.73,NNE,33,0.0,3.0,91,0.00,,,0.00,weatherlink.com 1.10,2013-02-21 08:10:00,
2013-02-21 01:25:00,17.8,15.0,29.73,NNE,33,2.0,7.0,90,0.00,,,0.00,weatherlink.com 1.10,2013-02-21 08:25:00,
2013-02-21 01:40:00,17.4,15.0,29.73,NNE,33,5.0,5.0,90,0.00,,,0.00,weatherlink.com 1.10,2013-02-21 08:40:00,
2013-02-21 01:55:00,16.7,14.0,29.74,NNE,33,2.0,7.0,90,0.00,,,0.00,weatherlink.com 1.10,2013-02-21 08:55:00,
2013-02-21 02:10:00,16.1,14.0,29.73,NNE,33,4.0,8.0,89,0.00,,,0.00,weatherlink.com 1.10,2013-02-21 09:10:00,
2013-02-21 02:25:00,15.7,13.0,29.73,NNE,33,0.0,7.0,90,0.00,,,0.00,weatherlink.com 1.10,2013-02-21 09:25:00,
2013-02-21 02:40:00,15.9,14.0,29.73,NNE,33,3.0,5.0,90,0.00,,,0.00,weatherlink.com 1.10,2013-02-21 09:40:00,
2013-02-21 02:55:00,15.6,13.0,29.72,NNE,33,3.0,5.0,90,0.00,,,0.00,weatherlink.com 1.10,2013-02-21 09:55:00,
2013-02-21 03:11:00,15.7,13.0,29.72,NNE,33,3.0,4.0,90,0.00,,,0.00,weatherlink.com 1.10,2013-02-21 10:11:00,
2013-02-21 03:25:00,15.7,13.0,29.72,NNE,33,3.0,5.0,89,0.00,,,0.00,weatherlink.com 1.10,2013-02-21 10:25:00,
2013-02-21 03:40:00,15.4,13.0,29.72,NNE,33,0.0,5.0,89,0.00,,,0.00,weatherlink.com 1.10,2013-02-21 10:40:00,
2013-02-21 03:55:00,15.4,13.0,29.73,NNE,33,0.0,2.0,89,0.00,,,0.00,weatherlink.com 1.10,2013-02-21 10:55:00,
2013-02-21 04:10:00,15.3,13.0,29.74,NNE,33,0.0,4.0,89,0.00,,,0.00,weatherlink.com 1.10,2013-02-21 11:10:00,
2013-02-21 04:25:00,15.1,13.0,29.74,NNE,33,0.0,3.0,90,0.00,,,0.00,weatherlink.com 1.10,2013-02-21 11:25:00,
2013-02-21 04:40:00,15.1,13.0,29.75,NNE,33,1.0,3.0,90,0.00,,,0.00,weatherlink.com 1.10,2013-02-21 11:40:00,
2013-02-21 04:55:00,14.7,12.0,29.75,NNE,33,2.0,5.0,89,0.00,,,0.00,weatherlink.com 1.10,2013-02-21 11:55:00,
2013-02-21 05:11:00,14.5,12.0,29.76,NNE,33,2.0,4.0,89,0.00,,,0.00,weatherlink.com 1.10,2013-02-21 12:11:00,
2013-02-21 05:26:00,14.2,12.0,29.76,NNE,33,0.0,4.0,89,0.00,,,0.00,weatherlink.com 1.10,2013-02-21 12:26:00,
2013-02-21 05:41:00,14.0,11.0,29.76,NNE,33,0.0,4.0,89,0.00,,,0.00,weatherlink.com 1.10,2013-02-21 12:41:00,
2013-02-21 05:56:00,14.0,11.0,29.76,NNE,33,0.0,4.0,89,0.00,,,0.00,weatherlink.com 1.10,2013-02-21 12:56:00,
2013-02-21 06:11:00,14.0,11.0,29.77,NNE,33,0.0,3.0,89,0.00,,,0.00,weatherlink.com 1.10,2013-02-21 13:11:00,
2013-02-21 06:26:00,14.0,11.0,29.77,NNE,33,0.0,3.0,89,0.00,,,0.00,weatherlink.com 1.10,2013-02-21 13:26:00,
2013-02-21 06:41:00,14.1,12.0,29.78,NNE,33,0.0,0.0,89,0.00,,,0.00,weatherlink.com 1.10,2013-02-21 13:41:00,
2013-02-21 06:56:00,14.2,12.0,29.78,NNE,33,0.0,2.0,89,0.00,,,0.00,weatherlink.com 1.10,2013-02-21 13:56:00,
2013-02-21 07:11:00,14.4,12.0,29.79,NNE,33,0.0,3.0,89,0.00,,,0.00,weatherlink.com 1.10,2013-02-21 14:11:00,
2013-02-21 07:26:00,14.7,12.0,29.80,NNE,33,0.0,0.0,89,0.00,,,0.00,weatherlink.com 1.10,2013-02-21 14:26:00,
2013-02-21 07:41:00,15.1,13.0,29.80,NNE,33,0.0,3.0,89,0.00,,,0.00,weatherlink.com 1.10,2013-02-21 14:41:00,
2013-02-21 07:56:00,15.5,13.0,29.80,NNE,33,2.0,2.0,88,0.00,,,0.00,weatherlink.com 1.10,2013-02-21 14:56:00,
2013-02-21 08:11:00,15.7,12.0,29.81,NNE,33,3.0,6.0,86,0.00,,,0.00,weatherlink.com 1.10,2013-02-21 15:11:00,
2013-02-21 08:26:00,16.1,13.0,29.80,NNE,33,2.0,4.0,87,0.00,,,0.00,weatherlink.com 1.10,2013-02-21 15:26:00,
2013-02-21 08:41:00,16.0,13.0,29.81,NNE,33,3.0,5.0,86,0.00,,,0.00,weatherlink.com 1.10,2013-02-21 15:41:00,
2013-02-21 08:56:00,16.3,13.0,29.81,NNE,33,2.0,3.0,86,0.00,,,0.00,weatherlink.com 1.10,2013-02-21 15:56:00,
2013-02-21 09:11:00,16.7,13.0,29.81,NNE,33,2.0,3.0,86,0.00,,,0.00,weatherlink.com 1.10,2013-02-21 16:11:00,
2013-02-21 09:26:00,17.4,14.0,29.82,NNE,33,0.0,3.0,86,0.00,,,0.00,weatherlink.com 1.10,2013-02-21 16:26:00,
2013-02-21 09:41:00,19.1,15.0,29.82,NNE,33,1.0,4.0,85,0.00,,,0.00,weatherlink.com 1.10,2013-02-21 16:41:00,
2013-02-21 09:56:00,19.3,15.0,29.82,NNE,33,2.0,5.0,84,0.00,,,0.00,weatherlink.com 1.10,2013-02-21 16:56:00,
2013-02-21 10:11:00,20.2,16.0,29.82,NNE,33,0.0,4.0,84,0.00,,,0.00,weatherlink.com 1.10,2013-02-21 17:11:00,
2013-02-21 10:41:00,21.5,17.0,29.82,NNE,33,0.0,4.0,82,0.02,,,0.02,weatherlink.com 1.10,2013-02-21 17:41:00,
2013-02-21 10:56:00,22.5,18.0,29.82,NNE,33,1.0,4.0,81,0.03,,,0.03,weatherlink.com 1.10,2013-02-21 17:56:00,
2013-02-21 11:11:00,22.6,16.0,29.82,NNE,33,4.0,8.0,77,0.04,,,0.04,weatherlink.com 1.10,2013-02-21 18:11:00,
2013-02-21 11:26:00,22.9,16.0,29.82,NNE,33,3.0,6.0,76,0.05,,,0.05,weatherlink.com 1.10,2013-02-21 18:26:00,
2013-02-21 11:41:00,23.2,17.0,29.82,NNE,33,0.0,6.0,76,0.03,,,0.05,weatherlink.com 1.10,2013-02-21 18:41:00,
2013-02-21 11:56:00,23.7,17.0,29.81,NNE,33,0.0,9.0,74,0.04,,,0.07,weatherlink.com 1.10,2013-02-21 18:56:00,
2013-02-21 12:11:00,23.6,16.0,29.80,NNE,31,4.0,7.0,73,0.04,,,0.08,weatherlink.com 1.10,2013-02-21 19:11:00,
2013-02-21 12:41:00,24.3,17.0,29.80,NNE,28,0.0,7.0,74,0.05,,,0.10,weatherlink.com 1.10,2013-02-21 19:41:00,
2013-02-21 12:56:00,24.4,18.0,29.79,NNE,21,0.0,8.0,75,0.04,,,0.11,weatherlink.com 1.10,2013-02-21 19:56:00,
2013-02-21 13:11:00,24.4,17.0,29.79,NNE,21,3.0,6.0,74,0.04,,,0.12,weatherlink.com 1.10,2013-02-21 20:11:00,
2013-02-21 13:27:00,24.5,18.0,29.79,North,9,2.0,10.0,76,0.02,,,0.12,weatherlink.com 1.10,2013-02-21 20:27:00,
2013-02-21 13:41:00,25.3,18.0,29.78,NNW,348,2.0,7.0,73,0.03,,,0.13,weatherlink.com 1.10,2013-02-21 20:41:00,
2013-02-21 13:57:00,24.9,17.0,29.78,NNW,329,5.0,13.0,73,0.02,,,0.13,weatherlink.com 1.10,2013-02-21 20:57:00,
2013-02-21 14:12:00,25.9,19.0,29.78,NNW,329,5.0,7.0,74,0.01,,,0.13,weatherlink.com 1.10,2013-02-21 21:12:00,
2013-02-21 14:26:00,25.3,18.0,29.78,NW,326,6.0,9.0,73,0.02,,,0.14,weatherlink.com 1.10,2013-02-21 21:26:00,
2013-02-21 14:41:00,25.4,19.0,29.79,NNW,328,3.0,10.0,75,0.01,,,0.14,weatherlink.com 1.10,2013-02-21 21:41:00,
2013-02-21 14:56:00,25.5,18.0,29.79,NNW,328,0.0,7.0,74,0.01,,,0.14,weatherlink.com 1.10,2013-02-21 21:56:00,
2013-02-21 15:11:00,25.1,18.0,29.79,NNW,328,3.0,6.0,75,0.01,,,0.14,weatherlink.com 1.10,2013-02-21 22:11:00,
2013-02-21 15:26:00,25.2,18.0,29.80,NNW,328,2.0,7.0,75,0.00,,,0.14,weatherlink.com 1.10,2013-02-21 22:26:00,
2013-02-21 15:41:00,24.9,18.0,29.80,NNW,328,0.0,6.0,76,0.00,,,0.14,weatherlink.com 1.10,2013-02-21 22:41:00,
2013-02-21 15:56:00,25.1,19.0,29.80,NNW,328,3.0,5.0,77,0.00,,,0.14,weatherlink.com 1.10,2013-02-21 22:56:00,
2013-02-21 16:12:00,24.9,19.0,29.80,NNW,328,2.0,6.0,77,0.00,,,0.14,weatherlink.com 1.10,2013-02-21 23:12:00,
2013-02-21 16:27:00,24.8,19.0,29.81,NNW,328,0.0,6.0,80,0.00,,,0.14,weatherlink.com 1.10,2013-02-21 23:27:00,
2013-02-21 16:42:00,24.5,19.0,29.81,NNW,328,0.0,3.0,81,0.00,,,0.14,weatherlink.com 1.10,2013-02-21 23:42:00,
2013-02-21 16:57:00,24.3,20.0,29.82,NNW,328,0.0,0.0,85,0.00,,,0.14,weatherlink.com 1.10,2013-02-21 23:57:00,
2013-02-21 17:12:00,23.8,20.0,29.82,NNW,328,0.0,1.0,85,0.00,,,0.14,weatherlink.com 1.10,2013-02-22 00:12:00,
2013-02-21 17:27:00,23.5,20.0,29.82,NNW,328,1.0,3.0,86,0.00,,,0.14,weatherlink.com 1.10,2013-02-22 00:27:00,
2013-02-21 17:42:00,23.4,20.0,29.83,NNW,328,1.0,4.0,87,0.00,,,0.14,weatherlink.com 1.10,2013-02-22 00:42:00,
2013-02-21 17:57:00,23.1,20.0,29.84,NNW,328,0.0,3.0,88,0.00,,,0.14,weatherlink.com 1.10,2013-02-22 00:57:00,
2013-02-21 18:12:00,22.9,20.0,29.84,NNW,328,0.0,5.0,88,0.00,,,0.14,weatherlink.com 1.10,2013-02-22 01:12:00,
2013-02-21 18:27:00,22.5,19.0,29.85,NNW,328,0.0,3.0,86,0.00,,,0.14,weatherlink.com 1.10,2013-02-22 01:27:00,
2013-02-21 18:42:00,22.5,19.0,29.86,NNW,328,0.0,2.0,87,0.00,,,0.14,weatherlink.com 1.10,2013-02-22 01:42:00,
2013-02-21 18:57:00,22.3,19.0,29.86,NNW,328,0.0,3.0,87,0.00,,,0.14,weatherlink.com 1.10,2013-02-22 01:57:00,
2013-02-21 19:12:00,22.0,19.0,29.86,NNW,328,0.0,0.0,87,0.00,,,0.14,weatherlink.com 1.10,2013-02-22 02:12:00,
2013-02-21 19:27:00,21.4,18.0,29.87,NNW,328,0.0,3.0,87,0.00,,,0.14,weatherlink.com 1.10,2013-02-22 02:27:00,
2013-02-21 19:42:00,21.0,18.0,29.87,NNW,328,0.0,4.0,88,0.00,,,0.14,weatherlink.com 1.10,2013-02-22 02:42:00,
2013-02-21 19:57:00,20.7,18.0,29.87,NNW,328,0.0,1.0,89,0.00,,,0.14,weatherlink.com 1.10,2013-02-22 02:57:00,
2013-02-21 20:12:00,20.7,18.0,29.87,NNW,328,3.0,3.0,89,0.00,,,0.14,weatherlink.com 1.10,2013-02-22 03:12:00,
2013-02-21 20:27:00,20.5,18.0,29.87,NNW,328,0.0,2.0,90,0.00,,,0.14,weatherlink.com 1.10,2013-02-22 03:27:00,
2013-02-21 20:42:00,20.7,18.0,29.88,NNW,328,0.0,3.0,90,0.00,,,0.14,weatherlink.com 1.10,2013-02-22 03:42:00,
2013-02-21 20:57:00,20.6,18.0,29.88,NNW,328,0.0,0.0,90,0.00,,,0.14,weatherlink.com 1.10,2013-02-22 03:57:00,
2013-02-21 21:12:00,20.4,18.0,29.88,NNW,328,0.0,0.0,90,0.00,,,0.14,weatherlink.com 1.10,2013-02-22 04:12:00,
2013-02-21 21:27:00,20.2,18.0,29.88,NNW,328,0.0,1.0,89,0.00,,,0.14,weatherlink.com 1.10,2013-02-22 04:27:00,
2013-02-21 21:42:00,20.1,17.0,29.87,NNW,328,0.0,0.0,88,0.00,,,0.14,weatherlink.com 1.10,2013-02-22 04:42:00,
2013-02-21 21:57:00,20.2,17.0,29.87,NNW,328,0.0,2.0,87,0.00,,,0.14,weatherlink.com 1.10,2013-02-22 04:57:00,
2013-02-21 22:12:00,20.5,17.0,29.87,NNW,328,0.0,3.0,86,0.00,,,0.14,weatherlink.com 1.10,2013-02-22 05:12:00,
2013-02-21 22:27:00,20.6,17.0,29.86,NNW,328,0.0,0.0,86,0.00,,,0.14,weatherlink.com 1.10,2013-02-22 05:27:00,
2013-02-21 22:42:00,20.7,17.0,29.86,NNW,328,0.0,0.0,86,0.00,,,0.14,weatherlink.com 1.10,2013-02-22 05:42:00,
2013-02-21 22:57:00,20.4,17.0,29.86,NNW,328,0.0,0.0,86,0.00,,,0.14,weatherlink.com 1.10,2013-02-22 05:57:00,
2013-02-21 23:12:00,20.4,17.0,29.86,NNW,328,0.0,0.0,86,0.00,,,0.14,weatherlink.com 1.10,2013-02-22 06:12:00,
2013-02-21 23:27:00,20.0,16.0,29.86,NNW,328,0.0,0.0,85,0.00,,,0.14,weatherlink.com 1.10,2013-02-22 06:27:00,
2013-02-21 23:42:00,19.5,16.0,29.86,NNW,328,0.0,0.0,86,0.00,,,0.14,weatherlink.com 1.10,2013-02-22 06:42:00,
2013-02-21 23:57:00,19.5,16.0,29.86,NNW,328,0.0,1.0,87,0.00,,,0.14,weatherlink.com 1.10,2013-02-22 06:57:00,